Time;durP1;ratioP1;P1;durP2;ratioP2;P2;SDS_P1;SDS_P2;PMS_P1;PMS_P2;Temp;Humidity;BMP_temperature;BMP_pressure;BME280_temperature;BME280_humidity;BME280_pressure;Samples;Min_cycle;Max_cycle;Signal;HPM_P1;HPM_P2
2021/08/23 00:01:10;;;;;;;11.63;3.72;;;;;;;23.27;50.51;99219.88;5095064;28;20030;-49
2021/08/23 00:03:35;;;;;;;9.30;3.15;;;;;;;23.06;50.81;99216.44;5094823;28;20052;-49
2021/08/23 00:06:01;;;;;;;7.95;3.72;;;;;;;22.85;51.68;99220.16;5113064;28;20473;-49
2021/08/23 00:08:29;;;;;;;6.95;3.35;;;;;;;22.76;51.66;99219.09;5113059;28;20039;-49
2021/08/23 00:10:55;;;;;;;6.72;2.72;;;;;;;22.54;52.02;99212.13;5112772;28;20043;-49
2021/08/23 00:13:20;;;;;;;8.18;3.10;;;;;;;22.40;53.02;99206.50;5094648;28;20027;-49
2021/08/23 00:15:51;;;;;;;12.38;3.05;;;;;;;22.55;52.88;99211.06;5094583;28;20031;-50
2021/08/23 00:18:18;;;;;;;10.95;3.30;;;;;;;22.69;52.77;99219.34;5112948;28;20393;-49
2021/08/23 00:20:50;;;;;;;7.50;3.53;;;;;;;22.90;52.48;99210.28;5112703;28;20077;-50
2021/08/23 00:23:16;;;;;;;9.77;3.30;;;;;;;22.93;51.86;99207.03;5112864;28;20020;-50
2021/08/23 00:25:42;;;;;;;6.20;3.38;;;;;;;22.96;51.68;99204.91;5094210;28;20027;-49
2021/08/23 00:28:08;;;;;;;11.95;3.75;;;;;;;22.89;51.96;99205.19;5094397;28;20393;-49
2021/08/23 00:30:36;;;;;;;7.95;3.38;;;;;;;22.85;52.13;99204.91;5112627;28;20028;-50
2021/08/23 00:33:02;;;;;;;10.02;3.22;;;;;;;22.71;52.36;99198.50;5112636;28;20389;-49
2021/08/23 00:35:28;;;;;;;12.02;3.50;;;;;;;22.40;52.78;99205.69;5112554;28;20026;-50
2021/08/23 00:37:55;;;;;;;5.60;2.63;;;;;;;22.22;53.35;99196.28;5112553;28;20023;-49
2021/08/23 00:40:23;;;;;;;8.20;3.20;;;;;;;22.10;53.60;99199.97;5112417;28;20516;-49
2021/08/23 00:42:50;;;;;;;7.25;2.70;;;;;;;21.76;54.35;99196.13;5094154;28;20027;-49
2021/08/23 00:45:17;;;;;;;83.75;13.35;;;;;;;21.57;54.85;99195.75;5112412;28;20073;-49
2021/08/23 00:47:43;;;;;;;15.18;4.20;;;;;;;21.47;55.19;99189.31;5112430;28;20023;-49
2021/08/23 00:50:09;;;;;;;8.30;3.20;;;;;;;21.47;55.19;99194.66;5094075;28;20493;-49
2021/08/23 00:52:35;;;;;;;7.00;3.00;;;;;;;21.48;55.06;99192.78;5112414;28;20293;-49
2021/08/23 00:55:02;;;;;;;11.50;3.22;;;;;;;21.59;55.09;99193.63;5112320;28;20076;-49
2021/08/23 00:57:28;;;;;;;11.02;2.70;;;;;;;21.70;54.69;99187.28;5112220;28;20031;-50
2021/08/23 00:59:54;;;;;;;10.43;6.28;;;;;;;21.67;54.90;99182.44;5112184;28;20390;-49
2021/08/23 01:02:33;;;;;;;4.93;3.00;;;;;;;21.32;55.29;99190.00;5112236;28;20027;-49
2021/08/23 01:05:45;;;;;;;9.07;2.83;;;;;;;20.98;56.03;99188.72;5094023;28;20118;-49
2021/08/23 01:08:23;;;;;;;11.15;3.30;;;;;;;20.81;56.63;99186.22;5029426;28;20497;-49
2021/08/23 01:10:53;;;;;;;7.60;2.83;;;;;;;20.61;56.93;99184.19;5012614;28;20598;-49
2021/08/23 01:13:22;;;;;;;7.18;3.47;;;;;;;20.50;57.36;99177.91;5029555;28;20029;-49
2021/08/23 01:15:48;;;;;;;7.07;3.17;;;;;;;20.54;57.79;99177.16;5029379;28;20590;-49
2021/08/23 01:18:13;;;;;;;9.82;3.13;;;;;;;20.83;57.41;99176.09;5012836;28;20053;-50
2021/08/23 01:20:42;;;;;;;7.28;3.00;;;;;;;21.20;56.68;99170.72;5012640;28;20148;-49
2021/08/23 01:23:12;;;;;;;9.43;3.53;;;;;;;21.50;55.75;99169.31;5029390;28;20435;-49
2021/08/23 01:25:41;;;;;;;9.77;3.25;;;;;;;21.66;54.88;99167.50;5012685;28;20024;-49
2021/08/23 01:28:11;;;;;;;12.88;4.20;;;;;;;21.70;54.74;99171.25;5012659;28;20025;-49
2021/08/23 01:31:04;;;;;;;6.35;3.33;;;;;;;21.84;54.75;99172.38;5012692;28;20124;-49
2021/08/23 01:33:31;;;;;;;6.75;3.33;;;;;;;21.82;54.33;99161.16;5029344;28;20033;-49
2021/08/23 01:35:58;;;;;;;9.07;3.50;;;;;;;21.67;54.38;99158.41;5012624;28;20037;-49
2021/08/23 01:38:24;;;;;;;6.53;2.72;;;;;;;21.57;54.64;99159.19;5032850;28;20056;-49
2021/08/23 01:41:07;;;;;;;7.00;2.95;;;;;;;21.65;54.47;99155.19;5016422;28;20057;-49
2021/08/23 01:43:34;;;;;;;7.20;3.00;;;;;;;21.57;54.30;99156.53;5097585;28;20027;-49
2021/08/23 01:46:00;;;;;;;6.55;2.55;;;;;;;21.34;54.65;99155.03;5115857;28;20024;-49
2021/08/23 01:48:25;;;;;;;4.88;3.00;;;;;;;21.08;55.38;99152.22;5097492;28;20554;-49
2021/08/23 01:50:51;;;;;;;9.27;3.20;;;;;;;20.88;55.77;99155.56;5115740;28;20062;-49
2021/08/23 01:53:19;;;;;;;9.18;2.90;;;;;;;20.73;56.03;99155.47;5116003;28;20456;-49
2021/08/23 01:55:45;;;;;;;6.10;2.85;;;;;;;20.62;56.50;99149.22;5115687;28;20047;-49
2021/08/23 01:58:11;;;;;;;8.95;2.80;;;;;;;20.58;56.63;99155.31;5097389;28;20490;-49
2021/08/23 02:00:37;;;;;;;5.20;3.05;;;;;;;20.51;56.78;99153.66;5097186;28;20102;-49
2021/08/23 02:03:03;;;;;;;4.55;2.60;;;;;;;20.47;57.17;99154.41;5097319;28;20476;-49
2021/08/23 02:05:29;;;;;;;6.40;3.13;;;;;;;20.46;57.30;99153.59;5097100;28;20393;-49
2021/08/23 02:07:55;;;;;;;6.70;2.80;;;;;;;20.55;57.17;99156.63;5115479;28;20024;-49
2021/08/23 02:10:21;;;;;;;6.85;3.30;;;;;;;20.51;57.18;99152.84;5115310;28;20020;-49
2021/08/23 02:12:47;;;;;;;8.75;3.55;;;;;;;20.47;57.34;99147.22;5115352;28;20114;-49
2021/08/23 02:15:13;;;;;;;8.38;2.80;;;;;;;20.40;57.15;99153.81;5115259;28;20094;-49
2021/08/23 02:17:39;;;;;;;9.55;3.22;;;;;;;20.24;57.79;99145.69;5115256;28;20134;-49
2021/08/23 02:20:09;;;;;;;10.15;3.63;;;;;;;20.25;57.92;99149.16;5115158;28;20446;-50
2021/08/23 02:22:35;;;;;;;5.10;3.10;;;;;;;20.22;57.86;99149.66;5096842;28;20026;-49
2021/08/23 02:25:01;;;;;;;7.53;2.85;;;;;;;20.21;57.94;99156.06;5096742;28;20381;-50
2021/08/23 02:27:26;;;;;;;5.40;3.28;;;;;;;20.17;58.08;99152.28;5096673;28;20519;-50
2021/08/23 02:29:52;;;;;;;9.50;2.90;;;;;;;20.15;57.96;99155.19;5096652;28;20082;-49
2021/08/23 02:32:18;;;;;;;8.00;2.78;;;;;;;20.05;57.91;99160.41;5114920;28;20019;-49
2021/08/23 02:34:43;;;;;;;8.70;3.33;;;;;;;19.91;58.04;99157.34;5114911;28;20531;-49
2021/08/23 02:37:09;;;;;;;5.47;3.25;;;;;;;19.83;58.35;99158.56;5096756;28;20039;-49
2021/08/23 02:39:35;;;;;;;6.45;2.35;;;;;;;19.74;58.66;99157.44;5096430;28;20405;-49
2021/08/23 02:42:00;;;;;;;5.78;2.40;;;;;;;19.66;59.07;99158.63;5114718;28;20028;-49
2021/08/23 02:44:26;;;;;;;6.75;3.05;;;;;;;19.61;59.30;99150.56;5114699;28;20027;-49
2021/08/23 02:46:52;;;;;;;16.88;4.20;;;;;;;19.62;59.33;99157.53;5096288;28;20032;-49
2021/08/23 02:49:18;;;;;;;6.00;2.85;;;;;;;19.68;59.24;99150.38;5114617;28;20051;-49
2021/08/23 02:51:47;;;;;;;4.60;3.10;;;;;;;19.68;59.17;99148.53;5096261;28;20516;-50
2021/08/23 02:54:13;;;;;;;5.80;3.00;;;;;;;19.64;59.35;99150.09;5096141;28;20080;-49
2021/08/23 02:56:39;;;;;;;7.38;3.97;;;;;;;19.65;59.24;99145.56;5096116;28;20049;-49
2021/08/23 02:59:05;;;;;;;11.65;2.80;;;;;;;19.65;59.55;99146.34;5114447;28;20541;-49
2021/08/23 03:01:30;;;;;;;9.98;3.22;;;;;;;19.69;59.45;99144.00;5095970;28;20118;-50
2021/08/23 03:03:56;;;;;;;6.90;3.28;;;;;;;19.70;59.26;99141.09;5095954;28;20493;-49
2021/08/23 03:06:22;;;;;;;9.68;2.65;;;;;;;19.69;59.34;99139.47;5095925;28;20107;-48
2021/08/23 03:08:47;;;;;;;7.25;3.53;;;;;;;19.63;59.52;99143.13;5095876;28;20015;-49
2021/08/23 03:11:15;;;;;;;7.35;3.03;;;;;;;19.62;59.40;99135.38;5084873;28;20040;-49
2021/08/23 03:13:42;;;;;;;4.50;2.97;;;;;;;19.61;59.32;99139.91;5073512;28;20024;-50
2021/08/23 03:16:10;;;;;;;4.88;2.75;;;;;;;19.60;59.27;99132.16;5072144;28;20060;-49
2021/08/23 03:18:36;;;;;;;12.75;3.88;;;;;;;19.55;59.31;99128.41;5073401;28;20490;-49
2021/08/23 03:21:01;;;;;;;7.93;2.72;;;;;;;19.51;59.48;99134.47;5073566;28;20035;-50
2021/08/23 03:23:28;;;;;;;7.38;3.47;;;;;;;19.45;59.89;99140.78;5071984;28;20021;-49
2021/08/23 03:25:54;;;;;;;8.40;3.17;;;;;;;19.42;59.71;99136.78;5072104;28;20016;-49
2021/08/23 03:28:20;;;;;;;16.42;3.80;;;;;;;19.41;60.07;99134.34;5071911;28;20575;-50
2021/08/23 03:30:46;;;;;;;14.55;3.70;;;;;;;19.50;59.87;99141.66;5071884;28;20017;-49
2021/08/23 03:33:13;;;;;;;12.40;3.33;;;;;;;19.51;59.89;99132.59;5073152;28;20467;-50
2021/08/23 03:35:39;;;;;;;19.10;4.20;;;;;;;19.56;59.72;99129.22;5073081;28;20043;-49
2021/08/23 03:38:04;;;;;;;21.33;5.10;;;;;;;19.55;59.76;99125.72;5071689;28;20032;-49
2021/08/23 03:40:30;;;;;;;11.93;3.13;;;;;;;19.58;59.67;99129.78;5072914;28;20111;-50
2021/08/23 03:42:56;;;;;;;13.15;3.72;;;;;;;19.55;59.68;99130.25;5071642;28;20036;-49
2021/08/23 03:45:22;;;;;;;12.20;3.90;;;;;;;19.50;60.06;99125.69;5071513;28;20013;-50
2021/08/23 03:47:48;;;;;;;10.40;3.35;;;;;;;19.48;60.04;99119.81;5071619;28;20483;-50
2021/08/23 03:50:13;;;;;;;12.80;3.60;;;;;;;19.41;60.21;99129.03;5071408;28;20402;-50
2021/08/23 03:52:42;;;;;;;14.15;4.05;;;;;;;19.34;60.43;99129.22;5072826;28;20098;-49
2021/08/23 03:55:09;;;;;;;9.30;3.75;;;;;;;19.35;60.27;99128.94;5071411;28;20036;-50
2021/08/23 03:57:36;;;;;;;10.52;3.20;;;;;;;19.36;60.60;99129.78;5071291;28;20341;-50
2021/08/23 04:00:06;;;;;;;8.70;3.25;;;;;;;19.37;60.30;99128.72;5072021;28;20024;-49
2021/08/23 04:02:38;;;;;;;8.32;3.42;;;;;;;19.38;60.41;99132.16;5071176;28;20020;-49
2021/08/23 04:05:04;;;;;;;13.63;2.88;;;;;;;19.49;60.31;99124.06;5071253;28;20587;-49
2021/08/23 04:07:30;;;;;;;13.55;5.15;;;;;;;19.54;59.83;99128.66;5072391;28;20043;-50
2021/08/23 04:09:56;;;;;;;7.47;3.22;;;;;;;19.43;59.99;99126.91;5071115;28;20406;-49
2021/08/23 04:12:21;;;;;;;12.95;3.42;;;;;;;19.39;60.20;99131.13;5070902;28;20502;-50
2021/08/23 04:14:47;;;;;;;8.95;3.42;;;;;;;19.42;60.34;99122.63;5071021;28;20020;-49
2021/08/23 04:17:12;;;;;;;8.98;3.20;;;;;;;19.62;59.89;99119.41;5070962;28;20119;-49
2021/08/23 04:19:38;;;;;;;9.07;3.25;;;;;;;19.63;59.65;99123.69;5070966;28;20025;-49
2021/08/23 04:22:04;;;;;;;6.63;2.50;;;;;;;19.69;59.34;99128.81;5070788;28;20029;-49
2021/08/23 04:24:29;;;;;;;29.42;26.63;;;;;;;19.51;59.24;99129.94;5072219;28;20028;-49
2021/08/23 04:26:55;;;;;;;24.65;22.00;;;;;;;19.22;59.75;99121.34;5072155;28;20021;-50
2021/08/23 04:29:21;;;;;;;10.18;5.18;;;;;;;19.02;60.59;99127.19;5072068;28;20056;-49
2021/08/23 04:31:47;;;;;;;9.73;2.85;;;;;;;18.91;60.83;99134.22;5072108;28;20516;-49
2021/08/23 04:34:12;;;;;;;4.63;2.55;;;;;;;18.83;61.04;99131.94;5072046;28;20024;-49
2021/08/23 04:36:39;;;;;;;12.88;3.70;;;;;;;18.77;61.14;99125.75;5070677;28;20028;-49
2021/08/23 04:39:06;;;;;;;9.32;3.67;;;;;;;18.79;61.41;99120.19;5072032;28;20017;-50
2021/08/23 04:41:40;;;;;;;28.27;25.52;;;;;;;18.96;60.85;99120.19;5070527;28;20082;-49
2021/08/23 04:44:06;;;;;;;15.90;14.07;;;;;;;18.98;61.07;99122.59;5070626;28;20025;-49
2021/08/23 04:46:33;;;;;;;7.72;3.25;;;;;;;19.04;60.93;99124.28;5071910;28;20021;-49
2021/08/23 04:48:59;;;;;;;10.15;2.90;;;;;;;19.14;60.82;99122.56;5071869;28;20521;-49
2021/08/23 04:51:25;;;;;;;6.95;3.00;;;;;;;19.24;60.23;99121.91;5070475;28;20064;-49
2021/08/23 04:53:51;;;;;;;11.73;3.50;;;;;;;19.26;60.20;99125.13;5071833;28;20055;-50
2021/08/23 04:56:17;;;;;;;6.68;3.17;;;;;;;19.23;59.98;99124.81;5070462;28;20060;-50
2021/08/23 04:58:44;;;;;;;8.85;2.75;;;;;;;19.16;60.22;99139.09;5072030;28;20047;-49
2021/08/23 05:01:10;;;;;;;9.40;2.60;;;;;;;19.16;60.06;99127.66;5070270;28;20028;-50
2021/08/23 05:03:36;;;;;;;5.20;2.05;;;;;;;19.16;60.24;99138.28;5070396;28;20025;-49
2021/08/23 05:06:03;;;;;;;11.55;2.55;;;;;;;19.20;60.34;99134.09;5071680;28;20051;-49
2021/08/23 05:08:28;;;;;;;7.93;6.82;;;;;;;19.29;59.88;99142.44;5071659;28;20398;-49
2021/08/23 05:10:54;;;;;;;7.30;3.88;;;;;;;19.30;59.75;99142.19;5080596;28;20047;-50
2021/08/23 05:13:20;;;;;;;4.95;2.58;;;;;;;19.60;59.43;99142.81;5116046;28;20039;-49
2021/08/23 05:15:45;;;;;;;9.70;3.47;;;;;;;20.18;58.05;99143.22;5098012;28;20080;-50
2021/08/23 05:18:11;;;;;;;7.18;2.70;;;;;;;20.74;56.49;99139.22;5116387;28;20027;-49
2021/08/23 05:20:37;;;;;;;7.50;2.85;;;;;;;21.29;54.93;99141.69;5116229;28;20023;-49
2021/08/23 05:23:03;;;;;;;7.22;2.45;;;;;;;21.74;53.61;99141.06;5116289;28;20030;-49
2021/08/23 05:25:29;;;;;;;7.47;2.40;;;;;;;22.17;52.59;99135.56;5116235;28;20027;-49
2021/08/23 05:27:54;;;;;;;12.88;5.50;;;;;;;22.77;51.10;99138.53;5098123;28;20139;-50
2021/08/23 05:30:20;;;;;;;5.00;2.60;;;;;;;23.22;49.80;99134.22;5097746;28;20030;-49
2021/08/23 05:32:46;;;;;;;7.32;2.80;;;;;;;23.57;48.77;99129.00;5097817;28;20553;-49
2021/08/23 05:35:12;;;;;;;9.98;2.90;;;;;;;23.98;47.45;99129.59;5116065;28;20500;-49
2021/08/23 05:37:38;;;;;;;19.40;16.80;;;;;;;24.35;46.95;99127.47;5116064;28;20024;-49
2021/08/23 05:40:05;;;;;;;14.55;8.48;;;;;;;24.50;46.08;99125.50;5114567;28;20031;-49
2021/08/23 05:42:30;;;;;;;15.13;7.95;;;;;;;24.77;45.49;99124.19;5115946;28;20030;-49
2021/08/23 05:44:56;;;;;;;23.73;14.10;;;;;;;25.03;45.22;99123.91;5097544;28;20099;-50
2021/08/23 05:47:23;;;;;;;9.25;4.18;;;;;;;25.14;44.61;99122.75;5115806;28;20058;-50
2021/08/23 05:49:49;;;;;;;12.30;3.00;;;;;;;25.10;44.85;99124.41;5097460;28;20069;-49
2021/08/23 05:52:15;;;;;;;14.25;5.18;;;;;;;24.96;45.33;99120.78;5097329;28;20164;-49
2021/08/23 05:54:41;;;;;;;12.25;8.20;;;;;;;24.99;45.24;99129.09;5115695;28;20028;-49
2021/08/23 05:57:08;;;;;;;6.35;3.63;;;;;;;25.28;44.65;99131.75;5097231;28;20451;-50
2021/08/23 05:59:33;;;;;;;4.88;2.70;;;;;;;25.57;43.80;99133.53;5115609;28;20011;-50
2021/08/23 06:01:59;;;;;;;10.68;2.60;;;;;;;25.88;43.10;99123.19;5097101;28;20034;-49
2021/08/23 06:04:25;;;;;;;14.52;3.05;;;;;;;26.26;41.98;99125.88;5097214;28;20176;-49
2021/08/23 06:06:52;;;;;;;7.22;2.78;;;;;;;26.70;41.55;99127.34;5115481;28;20577;-50
2021/08/23 06:09:18;;;;;;;8.35;2.83;;;;;;;27.37;40.27;99128.00;5115462;28;20024;-50
2021/08/23 06:11:44;;;;;;;9.50;3.13;;;;;;;27.77;38.95;99128.22;5115141;28;20092;-49
2021/08/23 06:14:10;;;;;;;201.43;181.27;;;;;;;28.06;38.44;99125.19;5115251;28;20565;-50
2021/08/23 06:16:36;;;;;;;31.88;28.60;;;;;;;28.45;37.35;99121.81;5115307;28;20102;-50
2021/08/23 06:19:03;;;;;;;144.93;131.70;;;;;;;28.79;36.98;99120.44;5096873;28;20051;-50
2021/08/23 06:21:29;;;;;;;232.32;211.98;;;;;;;29.22;36.29;99117.16;5115040;28;20110;-50
2021/08/23 06:23:54;;;;;;;25.38;19.65;;;;;;;29.50;35.58;99119.59;5114658;28;20439;-50
2021/08/23 06:26:23;;;;;;;11.07;3.55;;;;;;;29.71;35.08;99113.59;5115059;28;20031;-50
2021/08/23 06:28:48;;;;;;;9.98;3.17;;;;;;;29.78;34.90;99117.44;5115077;28;20055;-50
2021/08/23 06:31:14;;;;;;;10.07;2.50;;;;;;;29.89;34.44;99115.22;5096613;28;20525;-50
2021/08/23 06:33:40;;;;;;;7.07;4.38;;;;;;;30.29;33.75;99108.81;5114981;28;20389;-49
2021/08/23 06:36:06;;;;;;;9.18;2.53;;;;;;;30.96;32.41;99116.31;5096615;28;20412;-49
2021/08/23 06:38:31;;;;;;;15.07;3.35;;;;;;;31.53;31.51;99106.97;5114861;28;20493;-49
2021/08/23 06:40:57;;;;;;;8.35;2.22;;;;;;;31.99;30.90;99110.56;5096454;28;20023;-49
2021/08/23 06:43:23;;;;;;;6.65;2.05;;;;;;;32.16;30.25;99101.53;5096531;28;20438;-49
2021/08/23 06:45:49;;;;;;;4.72;2.00;;;;;;;32.14;30.38;99103.00;5096373;28;20516;-49
2021/08/23 06:48:17;;;;;;;6.32;1.98;;;;;;;31.95;30.37;99101.50;5114681;28;20030;-49
2021/08/23 06:50:43;;;;;;;5.15;2.28;;;;;;;32.03;30.29;99111.53;5114688;28;20020;-50
2021/08/23 06:53:09;;;;;;;7.50;2.20;;;;;;;32.04;30.55;99101.47;5096435;28;20033;-49
2021/08/23 06:55:35;;;;;;;7.13;2.20;;;;;;;32.06;30.45;99096.50;5114597;28;20015;-50
2021/08/23 06:58:01;;;;;;;5.43;1.98;;;;;;;31.79;30.45;99097.81;5096186;28;20024;-49
2021/08/23 07:00:27;;;;;;;6.38;2.42;;;;;;;31.33;31.65;99097.66;5114268;28;20115;-49
2021/08/23 07:02:53;;;;;;;3.90;1.80;;;;;;;31.10;31.90;99099.84;5096044;28;20370;-50
2021/08/23 07:05:19;;;;;;;9.52;3.05;;;;;;;31.04;32.02;99099.22;5096032;28;20081;-50
2021/08/23 07:07:45;;;;;;;5.85;1.90;;;;;;;31.20;31.79;99096.75;5114382;28;20501;-50
2021/08/23 07:10:12;;;;;;;5.68;1.90;;;;;;;31.60;31.28;99096.38;5114238;28;20046;-49
2021/08/23 07:12:38;;;;;;;8.00;2.60;;;;;;;32.26;30.17;99086.75;5095622;28;20398;-49
2021/08/23 07:15:05;;;;;;;8.93;2.33;;;;;;;33.01;29.23;99085.72;5114122;28;20077;-50
2021/08/23 07:17:30;;;;;;;12.63;2.30;;;;;;;33.65;28.23;99080.72;5095819;28;20055;-49
2021/08/23 07:19:56;;;;;;;5.35;2.00;;;;;;;34.50;26.73;99074.06;5114316;28;20054;-50
2021/08/23 07:22:23;;;;;;;4.80;1.80;;;;;;;35.10;25.73;99086.84;5113969;28;20451;-49
2021/08/23 07:24:48;;;;;;;5.75;1.88;;;;;;;35.15;25.84;99084.63;5114016;28;20028;-50
2021/08/23 07:27:17;;;;;;;6.88;2.45;;;;;;;35.27;25.62;99081.00;5113922;28;20019;-49
2021/08/23 07:29:44;;;;;;;9.48;3.17;;;;;;;35.37;25.52;99074.97;5114151;28;20046;-50
2021/08/23 07:32:10;;;;;;;7.90;2.20;;;;;;;35.68;25.06;99089.72;5095494;28;20028;-50
2021/08/23 07:34:36;;;;;;;5.43;1.85;;;;;;;36.12;24.70;99091.31;5094943;28;20027;-50
2021/08/23 07:37:02;;;;;;;7.93;2.20;;;;;;;36.41;24.33;99095.41;5113692;28;20487;-49
2021/08/23 07:39:28;;;;;;;7.05;2.38;;;;;;;36.81;23.88;99094.16;5095365;28;20374;-50
2021/08/23 07:41:54;;;;;;;5.82;2.03;;;;;;;36.70;23.65;99083.03;5095215;28;20024;-50
2021/08/23 07:44:19;;;;;;;8.18;2.45;;;;;;;36.47;24.08;99090.44;5113616;28;20514;-50
2021/08/23 07:46:45;;;;;;;8.45;2.78;;;;;;;36.15;24.67;99098.84;5095218;28;20024;-50
2021/08/23 07:49:11;;;;;;;8.63;2.67;;;;;;;36.21;24.65;99097.38;5113467;28;20099;-49
2021/08/23 07:51:36;;;;;;;7.53;1.98;;;;;;;36.42;24.05;99096.97;5113376;28;20036;-50
2021/08/23 07:54:02;;;;;;;17.20;3.20;;;;;;;36.65;24.19;99102.50;5113426;28;20016;-50
2021/08/23 07:56:29;;;;;;;9.68;2.35;;;;;;;36.90;23.71;99099.34;5113331;28;20489;-50
2021/08/23 07:58:58;;;;;;;10.05;3.42;;;;;;;36.68;23.84;99101.75;5113304;28;20098;-50
2021/08/23 08:01:25;;;;;;;10.68;3.10;;;;;;;36.44;23.88;99097.41;5113084;28;20019;-50
2021/08/23 08:03:52;;;;;;;10.27;2.42;;;;;;;36.49;24.26;99094.38;5094903;28;20107;-50
2021/08/23 08:06:18;;;;;;;5.47;1.75;;;;;;;36.81;22.93;99096.09;5113174;28;20031;-49
2021/08/23 08:08:44;;;;;;;6.35;1.95;;;;;;;37.04;23.34;99101.53;5113126;28;20016;-50
2021/08/23 08:11:10;;;;;;;5.22;1.95;;;;;;;37.47;22.45;99093.94;5094422;28;20532;-50
2021/08/23 08:13:36;;;;;;;4.22;1.75;;;;;;;37.74;22.32;99091.97;5113054;28;20027;-49
2021/08/23 08:16:02;;;;;;;4.72;1.85;;;;;;;37.48;22.49;99096.31;5112909;28;20020;-49
2021/08/23 08:18:27;;;;;;;8.82;2.05;;;;;;;37.68;22.59;99104.41;5112920;28;20019;-50
2021/08/23 08:20:53;;;;;;;3.08;1.40;;;;;;;37.89;21.66;99090.97;5112803;28;20015;-50
2021/08/23 08:23:20;;;;;;;6.40;1.90;;;;;;;37.70;21.98;99094.66;5094988;28;20048;-50
2021/08/23 08:25:46;;;;;;;3.90;1.38;;;;;;;37.36;22.36;99102.00;5112773;28;20576;-49
2021/08/23 08:28:12;;;;;;;6.03;1.67;;;;;;;37.05;22.53;99103.13;5112666;28;20028;-50
2021/08/23 08:30:41;;;;;;;6.78;1.67;;;;;;;36.71;22.02;99086.56;5094363;28;20066;-50
2021/08/23 08:33:06;;;;;;;4.05;1.30;;;;;;;36.26;23.00;99107.22;5094572;28;20028;-49
2021/08/23 08:35:33;;;;;;;2.75;1.20;;;;;;;35.98;22.36;99098.13;5112661;28;20026;-50
2021/08/23 08:37:58;;;;;;;7.22;1.50;;;;;;;35.86;23.05;99105.66;5112652;28;20028;-50
2021/08/23 08:40:24;;;;;;;5.15;1.40;;;;;;;36.21;23.51;99105.59;5094200;28;20023;-50
2021/08/23 08:42:51;;;;;;;6.72;1.85;;;;;;;36.13;22.72;99103.84;5094261;28;20035;-50
2021/08/23 08:45:17;;;;;;;5.60;2.00;;;;;;;36.01;23.40;99099.31;5112394;28;20027;-50
2021/08/23 08:47:44;;;;;;;6.15;1.75;;;;;;;35.68;23.50;99094.34;5094241;28;20078;-49
2021/08/23 08:50:14;;;;;;;4.70;1.65;;;;;;;35.35;23.83;99101.06;5112415;28;20084;-50
2021/08/23 08:52:42;;;;;;;13.57;1.95;;;;;;;35.52;23.56;99097.16;5112383;28;20027;-50
2021/08/23 08:55:08;;;;;;;7.20;1.33;;;;;;;35.76;23.13;99096.13;5112261;28;20458;-49
2021/08/23 08:57:34;;;;;;;5.00;1.35;;;;;;;35.91;23.07;99097.19;5094063;28;20062;-50
2021/08/23 09:00:04;;;;;;;4.03;1.42;;;;;;;35.88;23.14;99097.88;5112289;28;20028;-49
2021/08/23 09:02:31;;;;;;;6.75;1.88;;;;;;;36.03;22.62;99099.75;5112516;28;20031;-50
2021/08/23 09:04:56;;;;;;;3.53;1.60;;;;;;;36.30;22.66;99095.22;5112208;28;20019;-50
2021/08/23 09:07:22;;;;;;;5.50;1.63;;;;;;;36.74;22.61;99091.28;5093885;28;20110;-50
2021/08/23 09:09:48;;;;;;;8.05;2.03;;;;;;;36.92;22.32;99099.78;5093898;28;20028;-49
2021/08/23 09:12:15;;;;;;;17.17;1.95;;;;;;;37.01;22.17;99091.31;5093671;28;20455;-50
2021/08/23 09:14:53;;;;;;;7.30;1.88;;;;;;;36.98;21.96;99093.63;5112369;28;20050;-49
2021/08/23 09:17:26;;;;;;;4.32;1.45;;;;;;;37.22;21.86;99085.41;5112145;28;20024;-49
2021/08/23 09:20:05;;;;;;;12.63;1.98;;;;;;;37.37;21.78;99077.00;5094170;28;20024;-49
2021/08/23 09:22:31;;;;;;;5.55;1.80;;;;;;;37.62;20.92;99079.31;5112125;28;20497;-49
2021/08/23 09:25:10;;;;;;;4.60;1.83;;;;;;;37.34;21.20;99087.91;5112062;28;20023;-49
2021/08/23 09:27:36;;;;;;;5.45;2.00;;;;;;;37.20;20.95;99085.75;5093778;28;20032;-49
2021/08/23 09:30:05;;;;;;;7.75;1.80;;;;;;;36.80;21.75;99076.16;5111892;28;20016;-50
2021/08/23 09:32:46;;;;;;;7.70;2.00;;;;;;;36.76;21.47;99078.84;5093706;28;20023;-50
2021/08/23 09:35:12;;;;;;;3.80;1.58;;;;;;;36.98;21.12;99081.88;5094036;28;20032;-49
2021/08/23 09:37:47;;;;;;;4.13;1.20;;;;;;;36.69;21.65;99078.72;5093642;28;20062;-49
2021/08/23 09:40:14;;;;;;;5.90;1.35;;;;;;;36.52;22.07;99074.53;5111923;28;20031;-49
2021/08/23 09:42:41;;;;;;;9.13;1.50;;;;;;;36.80;21.93;99073.41;5111972;28;20016;-49
2021/08/23 09:45:18;;;;;;;19.48;2.20;;;;;;;36.74;21.27;99063.94;5093662;28;20046;-50
2021/08/23 09:47:44;;;;;;;20.73;2.50;;;;;;;36.00;21.05;99062.25;5111869;28;20016;-50
2021/08/23 09:50:17;;;;;;;20.60;2.00;;;;;;;35.36;21.63;99050.78;5111817;28;20032;-50
2021/08/23 09:52:43;;;;;;;12.70;1.63;;;;;;;34.79;22.44;99059.25;5111934;28;20110;-50
2021/08/23 09:55:10;;;;;;;5.82;1.45;;;;;;;34.68;22.96;99055.47;5093511;28;20040;-49
2021/08/23 09:57:45;;;;;;;7.10;1.27;;;;;;;34.85;23.41;99058.97;5112372;28;20020;-50
2021/08/23 10:00:12;;;;;;;8.23;1.48;;;;;;;35.01;23.21;99057.00;5115856;28;20059;-49
2021/08/23 10:02:47;;;;;;;4.63;1.30;;;;;;;35.26;22.55;99057.59;5115568;28;20574;-50
2021/08/23 10:05:17;;;;;;;7.40;1.17;;;;;;;35.36;21.86;99040.66;5115521;28;20032;-49
2021/08/23 10:07:44;;;;;;;4.80;1.30;;;;;;;35.17;22.34;99057.78;5115714;28;20043;-50
2021/08/23 10:10:10;;;;;;;3.75;1.15;;;;;;;34.78;22.03;99051.41;5115407;28;20397;-50
2021/08/23 10:12:36;;;;;;;6.47;1.20;;;;;;;34.60;22.60;99053.69;5115283;28;20039;-50
2021/08/23 10:15:02;;;;;;;13.38;3.00;;;;;;;34.71;23.15;99037.59;5115306;28;20098;-50
2021/08/23 10:17:36;;;;;;;9.55;2.00;;;;;;;35.03;22.68;99043.78;5115308;28;20024;-50
2021/08/23 10:20:08;;;;;;;3.10;1.35;;;;;;;35.75;22.06;99034.44;5115217;28;20031;-49
2021/08/23 10:22:41;;;;;;;4.57;1.15;;;;;;;35.90;21.38;99032.75;5115163;28;20032;-48
2021/08/23 10:25:09;;;;;;;8.15;1.58;;;;;;;35.78;21.93;99033.72;5115139;28;20397;-49
2021/08/23 10:27:41;;;;;;;3.00;1.30;;;;;;;35.46;22.15;99031.13;5115138;28;20024;-49
2021/08/23 10:30:20;;;;;;;8.25;1.50;;;;;;;34.97;22.65;99026.13;5115051;28;20020;-49
2021/08/23 10:32:45;;;;;;;3.35;1.30;;;;;;;34.94;23.00;99021.38;5114975;28;20038;-50
2021/08/23 10:35:25;;;;;;;6.75;1.58;;;;;;;34.86;22.72;99020.44;5096607;28;20028;-49
2021/08/23 10:37:53;;;;;;;8.88;1.30;;;;;;;34.74;22.43;99015.09;5114914;28;20023;-49
2021/08/23 10:40:33;;;;;;;26.08;3.00;;;;;;;34.55;23.02;99013.03;5114798;28;20027;-49
2021/08/23 10:42:59;;;;;;;5.60;1.40;;;;;;;34.63;22.80;99014.78;5114882;28;20088;-49
2021/08/23 10:45:26;;;;;;;5.82;1.27;;;;;;;34.71;23.09;99016.59;5114734;28;20065;-49
2021/08/23 10:47:52;;;;;;;4.53;1.60;;;;;;;35.04;22.98;99011.88;5114702;28;20097;-50
2021/08/23 10:50:28;;;;;;;4.68;1.42;;;;;;;35.23;23.14;99016.59;5114694;28;20055;-50
2021/08/23 10:52:55;;;;;;;5.75;1.45;;;;;;;35.14;22.98;99017.53;5096326;28;20035;-49
2021/08/23 10:55:27;;;;;;;6.10;2.35;;;;;;;35.03;22.61;99004.81;5114552;28;20012;-49
2021/08/23 10:58:07;;;;;;;6.68;2.72;;;;;;;35.34;22.77;99010.19;5114571;28;20024;-50
2021/08/23 11:00:42;;;;;;;5.25;1.80;;;;;;;35.64;22.15;98992.44;5114392;28;20016;-49
2021/08/23 11:03:09;;;;;;;7.82;1.80;;;;;;;35.37;22.45;98992.31;5114582;28;20023;-49
2021/08/23 11:05:37;;;;;;;9.57;2.22;;;;;;;35.36;22.75;98997.00;5114351;28;20024;-49
2021/08/23 11:08:09;;;;;;;3.00;1.75;;;;;;;35.28;22.38;98991.75;5114539;28;20024;-49
2021/08/23 11:10:39;;;;;;;4.90;1.38;;;;;;;35.28;22.76;98999.94;5112710;28;20123;-49
2021/08/23 11:13:14;;;;;;;7.88;1.50;;;;;;;35.20;22.79;98990.81;5114282;28;20072;-49
2021/08/23 11:15:40;;;;;;;4.80;1.75;;;;;;;35.27;22.40;98974.56;5114156;28;20026;-49
2021/08/23 11:18:17;;;;;;;8.48;1.70;;;;;;;34.85;23.06;98982.59;5114406;28;20027;-50
2021/08/23 11:20:51;;;;;;;7.95;2.35;;;;;;;33.76;23.98;98965.50;5113973;28;20023;-49
2021/08/23 11:23:27;;;;;;;;;;;;;;;33.01;24.98;98947.81;5114572;28;20065;-49
2021/08/23 11:25:58;;;;;;;8.23;1.83;;;;;;;31.88;26.06;98972.91;5113931;28;19908;-49
2021/08/23 11:28:27;;;;;;;8.02;2.58;;;;;;;31.06;27.48;98976.91;5114028;28;20023;-49
2021/08/23 11:30:56;;;;;;;6.30;1.98;;;;;;;30.48;28.26;98983.88;5113894;28;20366;-49
2021/08/23 11:33:33;;;;;;;13.10;2.38;;;;;;;29.99;29.11;98976.06;5113888;28;20496;-50